Time;durP1;ratioP1;P1;durP2;ratioP2;P2;SDS_P1;SDS_P2;PMS_P1;PMS_P2;Temp;Humidity;BMP_temperature;BMP_pressure;BME280_temperature;BME280_humidity;BME280_pressure;Samples;Min_cycle;Max_cycle;Signal;HPM_P1;HPM_P2
2022/06/11 00:00:33;;;;;;;12.32;7.00;;;;;;;-144.07;100.00;58028.97;4846404;29;20429;-84
2022/06/11 00:02:59;;;;;;;10.13;6.88;;;;;;;-144.07;100.00;58028.97;4844457;29;20121;-82
2022/06/11 00:05:25;;;;;;;13.23;7.88;;;;;;;-144.07;100.00;58028.97;4843288;29;20053;-83
2022/06/11 00:07:51;;;;;;;12.23;7.80;;;;;;;-144.07;100.00;58028.97;4830613;29;20065;-82
2022/06/11 00:10:17;;;;;;;12.25;8.32;;;;;;;-144.07;100.00;58028.97;4858902;29;20081;-82
2022/06/11 00:12:43;;;;;;;11.00;7.57;;;;;;;-144.07;100.00;58028.97;4846998;29;20090;-82
2022/06/11 00:15:09;;;;;;;10.75;7.53;;;;;;;-144.07;100.00;58028.97;4848309;29;20141;-81
2022/06/11 00:17:35;;;;;;;12.63;8.30;;;;;;;-144.07;100.00;58028.97;4847386;29;20041;-82
2022/06/11 00:20:00;;;;;;;11.00;8.15;;;;;;;-144.07;100.00;58028.97;4849441;29;20060;-82
2022/06/11 00:22:28;;;;;;;12.23;7.60;;;;;;;-144.07;100.00;58028.97;4834526;29;20062;-83
2022/06/11 00:24:53;;;;;;;14.57;7.43;;;;;;;-144.07;100.00;58028.97;4851202;29;20045;-83
2022/06/11 00:27:19;;;;;;;11.55;8.57;;;;;;;-144.07;100.00;58028.97;4848037;29;20058;-83
2022/06/11 00:29:45;;;;;;;11.93;8.73;;;;;;;-144.07;100.00;58028.97;4846615;29;20129;-83
2022/06/11 00:32:11;;;;;;;13.48;8.05;;;;;;;-144.07;100.00;58028.97;4848752;29;20034;-82
2022/06/11 00:34:38;;;;;;;16.15;8.25;;;;;;;-144.07;100.00;58028.97;4852714;29;20038;-83
2022/06/11 00:37:04;;;;;;;14.10;8.40;;;;;;;-144.07;100.00;58028.97;4850000;29;20041;-82
2022/06/11 00:39:31;;;;;;;13.30;8.02;;;;;;;-144.07;100.00;58028.97;4849065;29;20045;-82
2022/06/11 00:42:04;;;;;;;9.30;7.60;;;;;;;-144.07;100.00;58028.97;4847487;29;20040;-82
2022/06/11 00:44:30;;;;;;;11.20;7.75;;;;;;;-144.07;100.00;58028.97;4841652;29;20392;-82
2022/06/11 00:47:05;;;;;;;17.70;7.32;;;;;;;-144.07;100.00;58028.97;4847808;29;20052;-82
2022/06/11 00:49:43;;;;;;;11.63;7.97;;;;;;;-144.07;100.00;58028.97;4843484;29;20046;-82
2022/06/11 00:52:30;;;;;;;12.93;8.70;;;;;;;-144.07;100.00;58028.97;4847289;29;20054;-82
2022/06/11 00:55:05;;;;;;;12.82;8.43;;;;;;;-144.07;100.00;58028.97;4849147;29;20038;-82
2022/06/11 00:57:33;;;;;;;13.55;9.25;;;;;;;-144.07;100.00;58028.97;4829004;29;20099;-82
2022/06/11 01:00:05;;;;;;;17.13;9.05;;;;;;;-144.07;100.00;58028.97;4819035;29;20038;-83
2022/06/11 01:02:31;;;;;;;14.07;9.60;;;;;;;-144.07;100.00;58028.97;4846182;29;20064;-83
2022/06/11 01:04:58;;;;;;;14.50;9.27;;;;;;;-144.07;100.00;58028.97;4851079;29;20034;-83
2022/06/11 01:07:43;;;;;;;14.30;9.07;;;;;;;-144.07;100.00;58028.97;4823615;29;20045;-85
2022/06/11 01:10:46;;;;;;;11.88;8.35;;;;;;;-144.07;100.00;58028.97;4843645;29;20045;-83
2022/06/11 01:13:30;;;;;;;16.05;8.82;;;;;;;-144.07;100.00;58028.97;4852911;29;20038;-84
2022/06/11 01:16:17;;;;;;;15.20;8.98;;;;;;;-144.07;100.00;58028.97;4852155;29;20463;-82
2022/06/11 01:18:56;;;;;;;14.18;9.38;;;;;;;-144.07;100.00;58028.97;4846538;29;20514;-82
2022/06/11 01:21:21;;;;;;;10.98;8.73;;;;;;;-144.07;100.00;58028.97;4834406;29;20045;-83
2022/06/11 01:23:53;;;;;;;11.02;8.60;;;;;;;-144.07;100.00;58028.97;4846691;29;20030;-82
2022/06/11 01:26:58;;;;;;;11.63;8.95;;;;;;;-144.07;100.00;58028.97;4845686;29;20479;-82
2022/06/11 01:29:37;;;;;;;12.65;8.82;;;;;;;-144.07;100.00;58028.97;4845412;29;20058;-82
2022/06/11 01:32:20;;;;;;;13.02;8.60;;;;;;;-144.07;100.00;58028.97;4845151;29;20495;-82
2022/06/11 01:34:48;;;;;;;11.13;8.75;;;;;;;-144.07;100.00;58028.97;4850813;29;20053;-82
2022/06/11 01:37:18;;;;;;;11.23;8.90;;;;;;;-144.07;100.00;58028.97;4845690;29;20460;-83
2022/06/11 01:39:47;;;;;;;12.68;9.13;;;;;;;-144.07;100.00;58028.97;4834202;29;20041;-83
2022/06/11 01:42:16;;;;;;;10.38;9.13;;;;;;;-144.07;100.00;58028.97;4843571;29;20436;-82
2022/06/11 01:44:42;;;;;;;10.05;8.80;;;;;;;-144.07;100.00;58028.97;4836951;29;20419;-82
2022/06/11 01:47:08;;;;;;;13.65;9.02;;;;;;;-144.07;100.00;58028.97;4821168;29;20133;-83
2022/06/11 01:49:52;;;;;;;11.93;9.00;;;;;;;-144.07;100.00;58028.97;4859217;29;20046;-82
2022/06/11 01:52:34;;;;;;;11.65;7.90;;;;;;;-144.07;100.00;58028.97;4843697;29;20058;-82
2022/06/11 01:55:13;;;;;;;12.38;9.00;;;;;;;-144.07;100.00;58028.97;4850616;29;20093;-81
2022/06/11 01:57:38;;;;;;;11.02;8.55;;;;;;;-144.07;100.00;58028.97;4844327;29;20052;-81
2022/06/11 02:00:15;;;;;;;11.95;8.98;;;;;;;-144.07;100.00;58028.97;4844765;29;20034;-81
2022/06/11 02:02:48;;;;;;;13.23;8.88;;;;;;;-144.07;100.00;58028.97;4827929;29;20717;-81
2022/06/11 02:05:22;;;;;;;13.48;9.10;;;;;;;-144.07;100.00;58028.97;4844433;29;20120;-81
2022/06/11 02:08:00;;;;;;;15.10;9.43;;;;;;;-144.07;100.00;58028.97;4844380;29;20057;-81
2022/06/11 02:10:33;;;;;;;10.30;8.68;;;;;;;-144.07;100.00;58028.97;4836952;29;20046;-82
2022/06/11 02:13:09;;;;;;;13.82;8.85;;;;;;;-144.07;100.00;58028.97;4843058;29;20033;-81
2022/06/11 02:15:43;;;;;;;;;;;;;;;-144.07;100.00;58028.97;4858105;29;20180;-83
2022/06/11 02:18:11;;;;;;;12.07;8.80;;;;;;;-144.07;100.00;58028.97;4843889;29;19920;-83
2022/06/11 02:20:50;;;;;;;11.07;8.52;;;;;;;-144.07;100.00;58028.97;4852852;29;20049;-82
2022/06/11 02:23:19;;;;;;;12.98;9.25;;;;;;;-144.07;100.00;58028.97;4834589;29;20053;-83
2022/06/11 02:25:47;;;;;;;11.35;8.85;;;;;;;-144.07;100.00;58028.97;4839901;29;20383;-83
2022/06/11 02:28:15;;;;;;;13.35;9.20;;;;;;;-144.07;100.00;58028.97;4828078;29;20069;-81
2022/06/11 02:30:42;;;;;;;11.60;9.23;;;;;;;-144.07;100.00;58028.97;4851438;29;20033;-82
2022/06/11 02:33:12;;;;;;;12.60;9.15;;;;;;;-144.07;100.00;58028.97;4850406;29;20099;-82
2022/06/11 02:35:38;;;;;;;12.85;9.05;;;;;;;-144.07;100.00;58028.97;4851414;29;20038;-82
2022/06/11 02:38:05;;;;;;;16.20;8.25;;;;;;;-144.07;100.00;58028.97;4846554;29;20102;-83
2022/06/11 02:40:36;;;;;;;14.55;8.68;;;;;;;-144.07;100.00;58028.97;4853040;29;20040;-81
2022/06/11 02:43:02;;;;;;;12.00;8.43;;;;;;;-144.07;100.00;58028.97;4835538;29;20432;-82
2022/06/11 02:45:28;;;;;;;10.27;9.10;;;;;;;-144.07;100.00;58028.97;4853738;29;20065;-83
2022/06/11 02:47:54;;;;;;;12.43;9.77;;;;;;;-144.07;100.00;58028.97;4846140;29;20554;-82
2022/06/11 02:50:28;;;;;;;11.90;9.00;;;;;;;-144.07;100.00;58028.97;4836327;29;20410;-81
2022/06/11 02:52:55;;;;;;;10.98;8.85;;;;;;;-144.07;100.00;58028.97;4845324;29;20071;-82
2022/06/11 02:55:21;;;;;;;12.20;8.88;;;;;;;-144.07;100.00;58028.97;4846352;29;20057;-82
2022/06/11 02:57:47;;;;;;;10.50;9.35;;;;;;;-144.07;100.00;58028.97;4846364;29;20445;-83
2022/06/11 03:00:16;;;;;;;13.85;9.13;;;;;;;-144.07;100.00;58028.97;4845182;29;20077;-83
2022/06/11 03:02:45;;;;;;;12.20;9.10;;;;;;;-144.07;100.00;58028.97;4843251;29;20046;-83
2022/06/11 03:05:11;;;;;;;11.65;8.73;;;;;;;-144.07;100.00;58028.97;4843408;29;20060;-82
2022/06/11 03:07:37;;;;;;;13.10;8.57;;;;;;;-144.07;100.00;58028.97;4843290;29;20046;-83
2022/06/11 03:10:03;;;;;;;16.33;10.23;;;;;;;-144.07;100.00;58028.97;4843663;29;20509;-83
2022/06/11 03:12:29;;;;;;;15.57;10.18;;;;;;;-144.07;100.00;58028.97;4843918;29;20046;-84
2022/06/11 03:14:54;;;;;;;12.85;9.90;;;;;;;-144.07;100.00;58028.97;4844509;29;20030;-83
2022/06/11 03:17:20;;;;;;;13.63;10.02;;;;;;;-144.07;100.00;58028.97;4844094;29;20046;-82
2022/06/11 03:19:46;;;;;;;11.40;10.20;;;;;;;-144.07;100.00;58028.97;4845903;29;20066;-83
2022/06/11 03:22:12;;;;;;;16.38;9.77;;;;;;;-144.07;100.00;58028.97;4847765;29;20090;-83
2022/06/11 03:24:39;;;;;;;14.73;9.77;;;;;;;-144.07;100.00;58028.97;4816675;29;20033;-83
2022/06/11 03:27:05;;;;;;;14.02;10.18;;;;;;;-144.07;100.00;58028.97;4847303;29;20137;-84
2022/06/11 03:29:31;;;;;;;14.07;9.55;;;;;;;-144.07;100.00;58028.97;4854294;29;20065;-83
2022/06/11 03:31:56;;;;;;;10.88;9.10;;;;;;;-144.07;100.00;58028.97;4848115;29;20045;-82
2022/06/11 03:34:22;;;;;;;11.65;9.15;;;;;;;-144.07;100.00;58028.97;4850910;29;20052;-84
2022/06/11 03:36:48;;;;;;;13.43;9.43;;;;;;;-144.07;100.00;58028.97;4838699;29;20582;-82
2022/06/11 03:39:15;;;;;;;11.40;9.30;;;;;;;-144.07;100.00;58028.97;4844855;29;20105;-83
2022/06/11 03:41:41;;;;;;;11.80;9.43;;;;;;;-144.07;100.00;58028.97;4827238;29;20502;-83
2022/06/11 03:44:07;;;;;;;15.30;9.75;;;;;;;-144.07;100.00;58028.97;4839387;29;20041;-84
2022/06/11 03:46:33;;;;;;;12.13;9.57;;;;;;;-144.07;100.00;58028.97;4841211;29;20060;-83
2022/06/11 03:48:58;;;;;;;12.50;9.23;;;;;;;-144.07;100.00;58028.97;4847314;29;20041;-83
2022/06/11 03:51:24;;;;;;;14.50;9.70;;;;;;;-144.07;100.00;58028.97;4843369;29;20041;-82
2022/06/11 03:53:50;;;;;;;13.35;9.52;;;;;;;-144.07;100.00;58028.97;4844333;29;20041;-82
2022/06/11 03:56:16;;;;;;;16.70;9.02;;;;;;;-144.07;100.00;58028.97;4859196;29;20490;-83
2022/06/11 03:58:43;;;;;;;16.73;9.38;;;;;;;-144.07;100.00;58028.97;4862649;29;20050;-84
2022/06/11 04:01:19;;;;;;;12.20;9.70;;;;;;;-144.07;100.00;58028.97;4830697;29;20497;-83
2022/06/11 04:03:54;;;;;;;13.10;9.02;;;;;;;-144.07;100.00;58028.97;4846699;29;20069;-83
2022/06/11 04:06:28;;;;;;;19.50;9.40;;;;;;;-144.07;100.00;58028.97;4847551;29;20502;-83
2022/06/11 04:08:54;;;;;;;13.52;8.98;;;;;;;-144.07;100.00;58028.97;4824232;29;20305;-83
2022/06/11 04:11:20;;;;;;;12.68;9.02;;;;;;;-144.07;100.00;58028.97;4843455;29;20497;-82
2022/06/11 04:13:46;;;;;;;11.80;9.30;;;;;;;-144.07;100.00;58028.97;4821365;29;20450;-84
2022/06/11 04:16:19;;;;;;;16.80;8.98;;;;;;;-144.07;100.00;58028.97;4839029;29;20273;-84
2022/06/11 04:18:47;;;;;;;13.57;8.43;;;;;;;-144.07;100.00;58028.97;4816626;29;20058;-83
2022/06/11 04:21:13;;;;;;;12.65;8.80;;;;;;;-144.07;100.00;58028.97;4843546;29;20083;-82
2022/06/11 04:23:39;;;;;;;11.95;8.65;;;;;;;-144.07;100.00;58028.97;4860991;29;20050;-83
2022/06/11 04:26:08;;;;;;;10.60;8.73;;;;;;;-144.07;100.00;58028.97;4837865;29;20078;-83
2022/06/11 04:28:33;;;;;;;17.33;8.70;;;;;;;-144.07;100.00;58028.97;4858011;29;20040;-83
2022/06/11 04:31:00;;;;;;;14.23;8.65;;;;;;;-144.07;100.00;58028.97;4822609;29;20038;-83
2022/06/11 04:33:26;;;;;;;14.13;9.00;;;;;;;-144.07;100.00;58028.97;4825328;29;20045;-84
2022/06/11 04:35:52;;;;;;;13.98;8.52;;;;;;;-144.07;100.00;58028.97;4849014;29;20069;-83
2022/06/11 04:38:17;;;;;;;11.63;7.95;;;;;;;-144.07;100.00;58028.97;4836087;29;20057;-83
2022/06/11 04:40:43;;;;;;;11.57;8.30;;;;;;;-144.07;100.00;58028.97;4846891;29;20034;-84
2022/06/11 04:43:09;;;;;;;9.88;7.38;;;;;;;-144.07;100.00;58028.97;4800101;29;20050;-83
2022/06/11 04:45:35;;;;;;;12.50;7.70;;;;;;;-144.07;100.00;58028.97;4828192;29;20394;-83
2022/06/11 04:48:01;;;;;;;9.35;6.20;;;;;;;-144.07;100.00;58028.97;4830064;29;20049;-84
2022/06/11 04:50:26;;;;;;;8.48;6.00;;;;;;;-144.07;100.00;58028.97;4820331;29;20054;-84
2022/06/11 04:52:52;;;;;;;8.35;5.80;;;;;;;-144.07;100.00;58028.97;4819697;29;20054;-84
2022/06/11 04:55:18;;;;;;;8.40;4.90;;;;;;;-144.07;100.00;58028.97;4833960;29;20045;-83
2022/06/11 04:57:44;;;;;;;8.43;5.05;;;;;;;-144.07;100.00;58028.97;4844746;29;20066;-80
2022/06/11 05:00:14;;;;;;;5.45;4.70;;;;;;;-144.07;100.00;58028.97;4821383;29;20030;-81
2022/06/11 05:02:40;;;;;;;5.47;4.20;;;;;;;-144.07;100.00;58028.97;4847432;29;20048;-83
2022/06/11 05:05:07;;;;;;;5.38;4.13;;;;;;;-144.07;100.00;58028.97;4832179;29;20069;-78
2022/06/11 05:07:33;;;;;;;7.00;4.22;;;;;;;-144.07;100.00;58028.97;4845400;29;20129;-78
2022/06/11 05:09:58;;;;;;;6.45;3.55;;;;;;;-144.07;100.00;58028.97;4840928;29;20034;-79
2022/06/11 05:12:24;;;;;;;6.07;3.80;;;;;;;-144.07;100.00;58028.97;4839209;29;20056;-78
2022/06/11 05:14:50;;;;;;;5.82;3.78;;;;;;;-144.07;100.00;58028.97;4829145;29;20514;-78
2022/06/11 05:17:16;;;;;;;6.05;3.67;;;;;;;-144.07;100.00;58028.97;4831933;29;20053;-78
2022/06/11 05:19:41;;;;;;;5.85;4.07;;;;;;;-144.07;100.00;58028.97;4843487;29;20441;-77
2022/06/11 05:22:07;;;;;;;5.45;3.85;;;;;;;-144.07;100.00;58028.97;4845234;29;20140;-77
2022/06/11 05:24:33;;;;;;;8.52;4.25;;;;;;;-144.07;100.00;58028.97;4820603;29;20048;-77
2022/06/11 05:27:04;;;;;;;6.40;4.60;;;;;;;-144.07;100.00;58028.97;4844120;29;20041;-76
2022/06/11 05:29:54;;;;;;;7.22;4.68;;;;;;;-144.07;100.00;58028.97;4819155;29;20425;-78
2022/06/11 05:32:21;;;;;;;7.57;3.80;;;;;;;-144.07;100.00;58028.97;4844809;29;20079;-78
2022/06/11 05:34:47;;;;;;;6.95;4.20;;;;;;;-144.07;100.00;58028.97;4835710;29;20057;-78
2022/06/11 05:37:13;;;;;;;7.53;4.22;;;;;;;-144.07;100.00;58028.97;4844794;29;20033;-78
2022/06/11 05:39:39;;;;;;;5.70;4.22;;;;;;;-144.07;100.00;58028.97;4847623;29;20037;-77
2022/06/11 05:42:05;;;;;;;5.28;4.47;;;;;;;-144.07;100.00;58028.97;4854426;29;20506;-78
2022/06/11 05:44:31;;;;;;;7.57;4.45;;;;;;;-144.07;100.00;58028.97;4837311;29;20137;-77
2022/06/11 05:46:56;;;;;;;7.00;4.55;;;;;;;-144.07;100.00;58028.97;4829004;29;20418;-78
2022/06/11 05:49:25;;;;;;;7.82;4.30;;;;;;;-144.07;100.00;58028.97;4835193;29;20053;-81
2022/06/11 05:51:54;;;;;;;6.60;4.45;;;;;;;-144.07;100.00;58028.97;4833720;29;20041;-78
2022/06/11 05:54:23;;;;;;;5.60;4.63;;;;;;;-144.07;100.00;58028.97;4843851;29;20041;-76
2022/06/11 05:56:49;;;;;;;6.13;4.32;;;;;;;-144.07;100.00;58028.97;4854464;29;20101;-78
2022/06/11 05:59:19;;;;;;;6.75;4.22;;;;;;;-144.07;100.00;58028.97;4857518;29;20421;-79
2022/06/11 06:01:45;;;;;;;11.80;6.22;;;;;;;-144.07;100.00;58028.97;4843551;29;20086;-79
2022/06/11 06:04:10;;;;;;;8.10;4.68;;;;;;;-144.07;100.00;58028.97;4853442;29;20038;-78
2022/06/11 06:06:39;;;;;;;8.75;4.35;;;;;;;-144.07;100.00;58028.97;4830941;29;20045;-79
2022/06/11 06:09:06;;;;;;;7.43;4.45;;;;;;;-144.07;100.00;58028.97;4844180;29;20034;-78
2022/06/11 06:11:32;;;;;;;8.25;4.68;;;;;;;-144.07;100.00;58028.97;4857192;29;20044;-79
2022/06/11 06:13:57;;;;;;;7.55;4.50;;;;;;;-144.07;100.00;58028.97;4845196;29;20486;-78
2022/06/11 06:16:25;;;;;;;7.07;4.60;;;;;;;-144.07;100.00;58028.97;4844789;29;20494;-77
2022/06/11 06:18:51;;;;;;;8.13;5.45;;;;;;;-144.07;100.00;58028.97;4845898;29;20057;-77
2022/06/11 06:21:19;;;;;;;6.82;4.90;;;;;;;-144.07;100.00;58028.97;4837559;29;20557;-77
2022/06/11 06:23:45;;;;;;;8.02;4.82;;;;;;;-144.07;100.00;58028.97;4840091;29;20053;-77
2022/06/11 06:26:11;;;;;;;8.27;4.72;;;;;;;-144.07;100.00;58028.97;4844202;29;20071;-79
2022/06/11 06:28:36;;;;;;;6.95;4.32;;;;;;;-144.07;100.00;58028.97;4843038;29;20049;-78
2022/06/11 06:31:03;;;;;;;7.13;4.50;;;;;;;-144.07;100.00;58028.97;4848710;29;20050;-77
2022/06/11 06:33:30;;;;;;;10.63;4.50;;;;;;;-144.07;100.00;58028.97;4843581;29;20040;-80
2022/06/11 06:36:00;;;;;;;7.07;4.40;;;;;;;-144.07;100.00;58028.97;4843605;29;20565;-78
2022/06/11 06:38:27;;;;;;;13.68;5.25;;;;;;;-144.07;100.00;58028.97;4853408;29;20034;-82
2022/06/11 06:40:52;;;;;;;8.80;5.07;;;;;;;-144.07;100.00;58028.97;4845894;29;20038;-78
2022/06/11 06:43:18;;;;;;;10.85;4.18;;;;;;;-144.07;100.00;58028.97;4844749;29;20053;-79
2022/06/11 06:45:44;;;;;;;10.32;4.40;;;;;;;-144.07;100.00;58028.97;4828215;29;20073;-81
2022/06/11 06:48:10;;;;;;;6.75;4.22;;;;;;;-144.07;100.00;58028.97;4844470;29;20042;-79
2022/06/11 06:50:36;;;;;;;11.20;4.18;;;;;;;-144.07;100.00;58028.97;4844098;29;20065;-78
2022/06/11 06:53:02;;;;;;;6.70;3.40;;;;;;;-144.07;100.00;58028.97;4844755;29;20049;-79
2022/06/11 06:55:27;;;;;;;7.05;3.50;;;;;;;-144.07;100.00;58028.97;4849023;29;20151;-79
2022/06/11 06:57:53;;;;;;;9.52;3.20;;;;;;;-144.07;100.00;58028.97;4860561;29;20065;-84
2022/06/11 07:00:19;;;;;;;5.72;3.10;;;;;;;-144.07;100.00;58028.97;4851205;29;20033;-83
2022/06/11 07:02:45;;;;;;;5.68;2.38;;;;;;;-144.07;100.00;58028.97;4855411;29;20045;-83
2022/06/11 07:05:12;;;;;;;7.38;2.63;;;;;;;-144.07;100.00;58028.97;4845674;29;20394;-85
2022/06/11 07:07:38;;;;;;;3.95;2.60;;;;;;;-144.07;100.00;58028.97;4839016;29;20065;-85
2022/06/11 07:10:05;;;;;;;4.47;3.03;;;;;;;-144.07;100.00;58028.97;4844821;29;20123;-83
2022/06/11 07:12:30;;;;;;;7.50;3.17;;;;;;;-144.07;100.00;58028.97;4848267;29;20053;-84
2022/06/11 07:14:56;;;;;;;9.02;3.83;;;;;;;-144.07;100.00;58028.97;4844117;29;20148;-85
2022/06/11 07:17:22;;;;;;;8.70;3.53;;;;;;;-144.07;100.00;58028.97;4841833;29;20574;-83
2022/06/11 07:19:51;;;;;;;6.25;3.50;;;;;;;-144.07;100.00;58028.97;4842807;29;20061;-84
2022/06/11 07:22:23;;;;;;;7.60;3.00;;;;;;;-144.07;100.00;58028.97;4829861;29;20532;-84
2022/06/11 07:24:48;;;;;;;10.52;3.85;;;;;;;-144.07;100.00;58028.97;4839494;29;20037;-82
2022/06/11 07:27:17;;;;;;;6.88;3.38;;;;;;;-144.07;100.00;58028.97;4830105;29;20086;-84
2022/06/11 07:29:54;;;;;;;5.78;2.63;;;;;;;-144.07;100.00;58028.97;4845498;29;20457;-87
2022/06/11 07:32:21;;;;;;;7.43;4.80;;;;;;;-144.07;100.00;58028.97;4846769;29;20049;-83
2022/06/11 07:34:46;;;;;;;4.70;2.80;;;;;;;-144.07;100.00;58028.97;4849508;29;20410;-84
2022/06/11 07:37:12;;;;;;;8.27;2.75;;;;;;;-144.07;100.00;58028.97;4848275;29;20058;-84
2022/06/11 07:39:38;;;;;;;7.80;2.70;;;;;;;-144.07;100.00;58028.97;4848563;29;20042;-84
2022/06/11 07:42:04;;;;;;;4.75;2.30;;;;;;;-144.07;100.00;58028.97;4829845;29;20073;-84
2022/06/11 07:44:31;;;;;;;4.43;2.70;;;;;;;-144.07;100.00;58028.97;4834326;29;20038;-83
2022/06/11 07:46:56;;;;;;;6.63;2.75;;;;;;;-144.07;100.00;58028.97;4851536;29;20497;-84
2022/06/11 07:49:22;;;;;;;4.82;2.30;;;;;;;-144.07;100.00;58028.97;4840533;29;20041;-84
2022/06/11 07:51:48;;;;;;;7.78;2.75;;;;;;;-144.07;100.00;58028.97;4840669;29;20450;-84
2022/06/11 07:54:14;;;;;;;7.32;2.97;;;;;;;-144.07;100.00;58028.97;4824037;29;20068;-83
2022/06/11 07:56:39;;;;;;;7.07;3.17;;;;;;;-144.07;100.00;58028.97;4811446;29;20042;-84
2022/06/11 07:59:06;;;;;;;6.07;3.20;;;;;;;-144.07;100.00;58028.97;4841776;29;20033;-82
2022/06/11 08:01:32;;;;;;;6.70;2.90;;;;;;;-144.07;100.00;58028.97;4814523;29;20081;-83
2022/06/11 08:03:57;;;;;;;6.00;3.10;;;;;;;-144.07;100.00;58028.97;4851083;29;20073;-83
2022/06/11 08:06:24;;;;;;;6.65;2.90;;;;;;;-144.07;100.00;58028.97;4839242;29;20046;-84
2022/06/11 08:08:50;;;;;;;5.45;2.47;;;;;;;-144.07;100.00;58028.97;4839682;29;20041;-83
2022/06/11 08:11:16;;;;;;;4.68;2.40;;;;;;;-144.07;100.00;58028.97;4842264;29;20124;-83
2022/06/11 08:13:42;;;;;;;3.60;2.30;;;;;;;-144.07;100.00;58028.97;4843979;29;20120;-83
2022/06/11 08:16:07;;;;;;;3.10;2.55;;;;;;;-144.07;100.00;58028.97;4843063;29;20037;-85
2022/06/11 08:18:33;;;;;;;3.42;2.47;;;;;;;-144.07;100.00;58028.97;4836247;29;20140;-85
2022/06/11 08:20:59;;;;;;;5.10;2.67;;;;;;;-144.07;100.00;58028.97;4832550;29;20137;-83
2022/06/11 08:23:24;;;;;;;5.32;2.50;;;;;;;-144.07;100.00;58028.97;4843218;29;20430;-84
2022/06/11 08:25:51;;;;;;;3.28;2.30;;;;;;;-144.07;100.00;58028.97;4842935;29;20479;-84
2022/06/11 08:28:17;;;;;;;3.58;2.58;;;;;;;-144.07;100.00;58028.97;4820266;29;20148;-84
2022/06/11 08:30:43;;;;;;;2.92;2.45;;;;;;;-144.07;100.00;58028.97;4846779;29;20128;-84
2022/06/11 08:33:09;;;;;;;4.88;2.85;;;;;;;-144.07;100.00;58028.97;4846431;29;20063;-83
2022/06/11 08:35:35;;;;;;;5.07;2.67;;;;;;;-144.07;100.00;58028.97;4861832;29;20053;-82
2022/06/11 08:38:02;;;;;;;5.68;2.70;;;;;;;-144.07;100.00;58028.97;4846840;29;20059;-83
2022/06/11 08:40:29;;;;;;;6.57;2.90;;;;;;;-144.07;100.00;58028.97;4846362;29;20474;-84
2022/06/11 08:43:03;;;;;;;5.93;2.63;;;;;;;-144.07;100.00;58028.97;4851260;29;20418;-84
2022/06/11 08:45:38;;;;;;;5.15;2.60;;;;;;;-144.07;100.00;58028.97;4842989;29;20045;-83
2022/06/11 08:48:35;;;;;;;4.75;2.70;;;;;;;-144.07;100.00;58028.97;4849835;29;20473;-83
2022/06/11 08:51:07;;;;;;;3.40;2.30;;;;;;;-144.07;100.00;58028.97;4846272;29;20053;-84
2022/06/11 08:53:34;;;;;;;4.15;2.45;;;;;;;-144.07;100.00;58028.97;4847251;29;20420;-83
2022/06/11 08:55:59;;;;;;;3.60;2.53;;;;;;;-144.07;100.00;58028.97;4846540;29;20402;-84
2022/06/11 08:58:32;;;;;;;7.53;2.58;;;;;;;-144.07;100.00;58028.97;4846546;29;20052;-83
2022/06/11 09:01:09;;;;;;;5.63;2.47;;;;;;;-144.07;100.00;58028.97;4841247;29;20042;-84
2022/06/11 09:03:54;;;;;;;3.53;2.22;;;;;;;-144.07;100.00;58028.97;4844611;29;20130;-83
2022/06/11 09:06:43;;;;;;;4.32;2.90;;;;;;;-144.07;100.00;58028.97;4844614;29;20443;-84
2022/06/11 09:09:47;;;;;;;4.70;2.40;;;;;;;-144.07;100.00;58028.97;4837272;29;20054;-84
2022/06/11 09:12:24;;;;;;;7.40;2.65;;;;;;;-144.07;100.00;58028.97;4836080;29;20054;-84
2022/06/11 09:14:55;;;;;;;7.28;3.60;;;;;;;-144.07;100.00;58028.97;4844673;29;20050;-85
2022/06/11 09:17:46;;;;;;;6.43;4.20;;;;;;;-144.07;100.00;58028.97;4845646;29;20454;-85
2022/06/11 09:20:24;;;;;;;4.13;2.45;;;;;;;-144.07;100.00;58028.97;4857243;29;20544;-84
2022/06/11 09:23:20;;;;;;;4.22;2.72;;;;;;;-144.07;100.00;58028.97;4828820;29;20053;-84
2022/06/11 09:25:56;;;;;;;;;;;;;;;-144.07;100.00;58028.97;4839321;29;20101;-84
2022/06/11 09:28:42;;;;;;;6.00;2.60;;;;;;;-144.07;100.00;58028.97;4860328;29;20426;-83
2022/06/11 09:31:41;;;;;;;7.32;2.80;;;;;;;-144.07;100.00;58028.97;4836468;29;20038;-83
2022/06/11 09:34:11;;;;;;;6.22;3.15;;;;;;;-144.07;100.00;58028.97;4834174;29;20422;-83
2022/06/11 09:36:41;;;;;;;5.28;2.30;;;;;;;-144.07;100.00;58028.97;4845577;29;20045;-84
2022/06/11 09:39:17;;;;;;;4.43;2.53;;;;;;;-144.07;100.00;58028.97;4853741;29;20038;-84
2022/06/11 09:42:05;;;;;;;4.57;3.28;;;;;;;-144.07;100.00;58028.97;4853491;29;20044;-84
2022/06/11 09:44:30;;;;;;;3.50;2.67;;;;;;;-144.07;100.00;58028.97;4852746;29;20050;-83
2022/06/11 09:46:59;;;;;;;6.05;3.33;;;;;;;-144.07;100.00;58028.97;4844485;29;20409;-86
2022/06/11 09:49:33;;;;;;;4.78;2.90;;;;;;;-144.07;100.00;58028.97;4855248;29;20399;-84
2022/06/11 09:52:21;;;;;;;5.07;2.70;;;;;;;-144.07;100.00;58028.97;4853489;29;20042;-84
2022/06/11 09:54:54;;;;;;;4.55;2.85;;;;;;;-144.07;100.00;58028.97;4843191;29;20133;-86
2022/06/11 09:57:20;;;;;;;7.57;2.92;;;;;;;-144.07;100.00;58028.97;4843887;29;20038;-85
2022/06/11 10:00:18;;;;;;;3.75;2.97;;;;;;;-144.07;100.00;58028.97;4844798;29;20101;-83
2022/06/11 10:05:29;;;;;;;3.90;2.92;;;;;;;-144.07;100.00;58028.97;4847785;29;20391;-84
2022/06/11 10:08:00;;;;;;;4.20;2.92;;;;;;;-144.07;100.00;58028.97;4838753;29;20094;-83
2022/06/11 10:10:28;;;;;;;2.90;2.42;;;;;;;-144.07;100.00;58028.97;4819692;29;20056;-85
2022/06/11 10:13:20;;;;;;;3.92;2.80;;;;;;;-144.07;100.00;58028.97;4823029;29;20405;-85
2022/06/11 10:15:46;;;;;;;4.00;2.55;;;;;;;-144.07;100.00;58028.97;4820382;29;20046;-84
2022/06/11 10:18:20;;;;;;;3.50;2.90;;;;;;;-144.07;100.00;58028.97;4823284;29;20498;-84
2022/06/11 10:21:11;;;;;;;3.25;2.53;;;;;;;-144.07;100.00;58028.97;4843408;29;20082;-84
2022/06/11 10:23:50;;;;;;;4.85;3.10;;;;;;;-144.07;100.00;58028.97;4841104;29;20083;-84
2022/06/11 10:26:37;;;;;;;4.50;2.70;;;;;;;-144.07;100.00;58028.97;4837983;29;20105;-84
2022/06/11 10:29:23;;;;;;;4.50;2.67;;;;;;;-144.07;100.00;58028.97;4845544;29;20065;-84
2022/06/11 10:32:30;;;;;;;3.90;2.75;;;;;;;-144.07;100.00;58028.97;4843066;29;20090;-85
2022/06/11 10:35:03;;;;;;;4.97;2.50;;;;;;;-144.07;100.00;58028.97;4844545;29;20090;-84
2022/06/11 10:37:41;;;;;;;4.65;2.97;;;;;;;-144.07;100.00;58028.97;4843031;29;20578;-82
2022/06/11 10:40:26;;;;;;;4.20;2.72;;;;;;;-144.07;100.00;58028.97;4852018;29;20037;-83
2022/06/11 10:43:33;;;;;;;3.03;2.40;;;;;;;-144.07;100.00;58028.97;4848163;29;20054;-85
2022/06/11 10:46:00;;;;;;;3.90;2.80;;;;;;;-144.07;100.00;58028.97;4837408;29;20500;-84
2022/06/11 10:48:29;;;;;;;3.85;2.50;;;;;;;-144.07;100.00;58028.97;4839200;29;20077;-84
2022/06/11 10:50:54;;;;;;;3.97;2.80;;;;;;;-144.07;100.00;58028.97;4835434;29;20073;-83
2022/06/11 10:53:30;;;;;;;5.78;2.65;;;;;;;-144.07;100.00;58028.97;4847322;29;20458;-83
2022/06/11 10:56:04;;;;;;;5.35;2.97;;;;;;;-144.07;100.00;58028.97;4858225;29;20045;-85
2022/06/11 10:58:41;;;;;;;3.75;2.97;;;;;;;-144.07;100.00;58028.97;4844135;29;20049;-84
2022/06/11 11:01:14;;;;;;;4.55;3.33;;;;;;;-144.07;100.00;58028.97;4845069;29;20076;-83
2022/06/11 11:03:59;;;;;;;8.10;3.40;;;;;;;-144.07;100.00;58028.97;4844072;29;20129;-83
2022/06/11 11:06:26;;;;;;;3.70;3.03;;;;;;;-144.07;100.00;58028.97;4828659;29;20414;-84
2022/06/11 11:08:58;;;;;;;4.70;3.10;;;;;;;-144.07;100.00;58028.97;4842330;29;20066;-83
2022/06/11 11:11:25;;;;;;;5.13;3.17;;;;;;;-144.07;100.00;58028.97;4843538;29;20041;-84
2022/06/11 11:13:51;;;;;;;9.27;3.70;;;;;;;-144.07;100.00;58028.97;4843090;29;20064;-87
2022/06/11 11:16:22;;;;;;;3.88;2.83;;;;;;;-144.07;100.00;58028.97;4842921;29;20038;-84
2022/06/11 11:19:09;;;;;;;5.03;3.30;;;;;;;-144.07;100.00;58028.97;4834694;29;20493;-86
2022/06/11 11:21:39;;;;;;;5.10;2.80;;;;;;;-144.07;100.00;58028.97;4840084;29;20168;-84
2022/06/11 11:24:34;;;;;;;5.32;2.67;;;;;;;-144.07;100.00;58028.97;4813788;29;20042;-85